Terminal Aerodrome Forecast
Issued by NWS

Home | Current Version | Previous Version | Text Only | Print | Product List | Glossary On
Versions: 1 2 3 4 5 6 7 8 9 10 11 12 13
000
FTUS45 KABQ 241740
TAFGUP
TAF
KGUP 241740Z 2418/2518 VRB06KT P6SM SCT150
     FM242000 30011KT P6SM VCSH SCT100 BKN150
      TEMPO 2420/2424 30011G21KT
     FM250200 14010KT P6SM SCT100
     FM250400 11006KT P6SM SCT150
     FM251700 23009KT P6SM SCT150=

USA.gov is the U.S. government's official web portal to all federal, state and local government web resources and services.